Time;durP1;ratioP1;P1;durP2;ratioP2;P2;SDS_P1;SDS_P2;PMS_P1;PMS_P2;Temp;Humidity;BMP_temperature;BMP_pressure;BME280_temperature;BME280_humidity;BME280_pressure;Samples;Min_cycle;Max_cycle;Signal;HPM_P1;HPM_P2
2022/08/22 00:00:10;;;;;;;4.50;1.60;;;23.40;64.20;;;;;;4946136;29;20503;-62
2022/08/22 00:02:58;;;;;;;4.82;1.60;;;23.40;64.20;;;;;;4948584;29;20094;-62
2022/08/22 00:05:47;;;;;;;5.70;1.40;;;23.40;64.10;;;;;;4947833;29;20502;-62
2022/08/22 00:08:43;;;;;;;6.32;1.60;;;23.40;64.20;;;;;;4948660;29;20039;-63
2022/08/22 00:11:27;;;;;;;4.13;1.52;;;23.30;64.10;;;;;;4946630;28;20652;-62
2022/08/22 00:14:40;;;;;;;5.03;1.45;;;23.40;64.10;;;;;;4948421;29;20051;-62
2022/08/22 00:17:33;;;;;;;3.97;1.50;;;23.40;64.00;;;;;;4946281;29;20051;-62
2022/08/22 00:20:15;;;;;;;4.32;1.60;;;23.30;64.10;;;;;;4945163;29;20182;-62
2022/08/22 00:23:10;;;;;;;4.45;1.48;;;23.30;64.10;;;;;;4959143;28;20433;-62
2022/08/22 00:25:50;;;;;;;4.63;1.60;;;23.30;64.20;;;;;;4931201;29;20460;-62
2022/08/22 00:28:17;;;;;;;4.35;1.40;;;23.30;64.10;;;;;;4931424;29;20035;-62
2022/08/22 00:30:49;;;;;;;4.00;1.45;;;23.30;64.10;;;;;;4931567;29;20031;-62
2022/08/22 00:33:25;;;;;;;3.97;1.30;;;23.30;64.10;;;;;;4960487;28;20185;-62
2022/08/22 00:35:56;;;;;;;4.95;1.50;;;23.30;64.10;;;;;;4987014;28;20026;-62
2022/08/22 00:38:37;;;;;;;4.20;1.42;;;23.30;64.00;;;;;;4985983;28;20029;-62
2022/08/22 00:41:06;;;;;;;5.70;1.50;;;23.30;64.00;;;;;;4988007;28;20557;-62
2022/08/22 00:43:47;;;;;;;5.00;1.42;;;23.30;64.00;;;;;;4989309;28;20029;-62
2022/08/22 00:46:25;;;;;;;5.13;1.33;;;23.30;64.10;;;;;;4989713;28;20430;-62
2022/08/22 00:49:29;;;;;;;2.90;1.40;;;23.30;64.00;;;;;;5004475;28;20131;-62
2022/08/22 00:52:09;;;;;;;2.97;1.35;;;23.30;64.10;;;;;;4972973;28;20061;-62
2022/08/22 00:54:48;;;;;;;3.65;1.40;;;23.30;64.00;;;;;;5005764;28;20045;-62
2022/08/22 00:57:47;;;;;;;2.95;1.20;;;23.30;64.20;;;;;;4988606;28;20049;-62
2022/08/22 01:00:20;;;;;;;4.18;1.30;;;23.30;64.30;;;;;;5005208;28;20517;-62
2022/08/22 01:03:24;;;;;;;4.10;1.48;;;23.30;64.20;;;;;;5005084;28;20197;-62
2022/08/22 01:06:21;;;;;;;3.22;1.40;;;23.20;64.00;;;;;;4984769;28;20038;-62
2022/08/22 01:08:58;;;;;;;4.43;1.50;;;23.20;64.00;;;;;;4995765;28;20081;-62
2022/08/22 01:11:33;;;;;;;3.72;1.40;;;23.30;64.10;;;;;;4986096;28;20053;-62
2022/08/22 01:14:13;;;;;;;3.08;1.40;;;23.20;64.00;;;;;;4982395;28;20049;-62
2022/08/22 01:16:53;;;;;;;4.30;1.27;;;23.20;64.10;;;;;;4953279;28;20061;-62
2022/08/22 01:19:42;;;;;;;3.83;1.50;;;23.20;64.20;;;;;;4983378;28;20030;-62
2022/08/22 01:22:26;;;;;;;3.90;1.30;;;23.20;64.10;;;;;;4978773;28;20038;-62
2022/08/22 01:25:43;;;;;;;3.80;1.30;;;23.20;64.00;;;;;;4982332;28;20022;-62
2022/08/22 01:28:29;;;;;;;5.15;1.60;;;23.20;64.10;;;;;;4892890;29;20043;-62
2022/08/22 01:30:58;;;;;;;3.75;1.40;;;23.20;64.10;;;;;;4908797;29;20041;-62
2022/08/22 01:33:57;;;;;;;3.03;1.50;;;23.20;64.00;;;;;;4908256;29;20068;-62
2022/08/22 01:36:32;;;;;;;4.40;1.33;;;23.20;64.10;;;;;;4905142;29;20063;-63
2022/08/22 01:39:09;;;;;;;3.13;1.27;;;23.20;64.10;;;;;;4906784;29;20036;-62
2022/08/22 01:41:49;;;;;;;4.60;1.80;;;23.20;64.10;;;;;;4891909;29;20059;-63
2022/08/22 01:44:28;;;;;;;3.58;1.48;;;23.20;64.10;;;;;;4929556;28;20079;-62
2022/08/22 01:47:11;;;;;;;4.68;1.50;;;23.20;64.10;;;;;;4944722;28;20035;-62
2022/08/22 01:49:46;;;;;;;3.58;1.40;;;23.20;64.10;;;;;;4959211;28;20616;-62
2022/08/22 01:52:16;;;;;;;3.08;1.30;;;23.20;64.20;;;;;;4945832;28;20118;-62
2022/08/22 01:55:01;;;;;;;3.25;1.20;;;23.20;64.00;;;;;;4945737;28;20032;-62
2022/08/22 01:57:26;;;;;;;2.50;1.10;;;23.20;64.10;;;;;;4945460;28;20526;-62
2022/08/22 01:59:55;;;;;;;3.00;1.25;;;23.20;64.00;;;;;;5051377;28;20112;-62
2022/08/22 02:02:41;;;;;;;3.42;1.20;;;23.20;64.00;;;;;;5024998;28;20378;-62
2022/08/22 02:05:16;;;;;;;3.58;1.25;;;23.20;64.10;;;;;;5022820;28;20096;-62
2022/08/22 02:07:47;;;;;;;;;;;23.10;64.00;;;;;;5025986;28;20041;-62
2022/08/22 02:10:41;;;;;;;4.15;1.35;;;23.20;64.10;;;;;;5027185;28;19917;-62
2022/08/22 02:13:12;;;;;;;3.53;1.30;;;23.20;64.10;;;;;;5027050;28;20179;-62
2022/08/22 02:15:38;;;;;;;3.75;1.23;;;23.10;64.10;;;;;;5026830;28;20036;-62
2022/08/22 02:18:04;;;;;;;6.30;1.20;;;23.10;64.10;;;;;;5026766;28;20030;-62
2022/08/22 02:20:47;;;;;;;4.05;1.20;;;23.10;64.10;;;;;;5027329;28;20036;-62
2022/08/22 02:23:21;;;;;;;2.75;1.08;;;23.10;64.10;;;;;;5026491;28;20021;-62
2022/08/22 02:26:06;;;;;;;3.45;1.30;;;23.10;64.10;;;;;;5024202;28;20028;-62
2022/08/22 02:28:51;;;;;;;2.13;1.20;;;23.10;64.20;;;;;;5053359;28;20116;-62
2022/08/22 02:31:22;;;;;;;2.92;1.40;;;23.10;64.10;;;;;;5024358;28;20449;-62
2022/08/22 02:33:51;;;;;;;3.90;1.55;;;23.10;64.20;;;;;;5024539;28;20029;-62
2022/08/22 02:36:19;;;;;;;3.85;1.40;;;23.10;64.10;;;;;;5030035;28;20052;-62
2022/08/22 02:38:56;;;;;;;2.83;1.30;;;23.10;64.20;;;;;;5029669;28;20132;-62
2022/08/22 02:42:13;;;;;;;3.58;1.35;;;23.10;64.10;;;;;;5023662;28;20057;-62
2022/08/22 02:44:59;;;;;;;2.70;1.20;;;23.10;64.30;;;;;;5006776;28;20034;-62
2022/08/22 02:47:37;;;;;;;1.88;1.13;;;23.10;64.20;;;;;;5004100;28;20060;-62
2022/08/22 02:50:14;;;;;;;2.78;1.20;;;23.10;64.20;;;;;;5007332;28;20038;-61
2022/08/22 02:53:04;;;;;;;3.08;1.17;;;23.10;64.20;;;;;;5007313;28;20054;-62
2022/08/22 02:55:57;;;;;;;2.53;1.30;;;23.10;64.10;;;;;;5008030;28;20076;-62
2022/08/22 02:58:36;;;;;;;3.50;1.23;;;23.10;64.20;;;;;;5007844;28;20033;-62
2022/08/22 03:01:01;;;;;;;3.80;1.20;;;23.10;64.20;;;;;;4994279;28;20585;-62
2022/08/22 03:03:30;;;;;;;2.70;1.30;;;23.10;64.20;;;;;;5008201;28;20124;-62
2022/08/22 03:06:02;;;;;;;3.03;1.10;;;23.10;64.40;;;;;;5008189;28;20044;-62
2022/08/22 03:08:33;;;;;;;4.43;1.30;;;23.10;64.30;;;;;;4996782;28;20387;-62
2022/08/22 03:11:18;;;;;;;4.90;1.05;;;23.10;64.30;;;;;;5007397;28;20521;-62
2022/08/22 03:14:13;;;;;;;3.95;1.25;;;23.00;64.30;;;;;;5006545;28;20133;-62
2022/08/22 03:16:54;;;;;;;3.53;1.30;;;23.00;64.30;;;;;;5026838;28;20034;-62
2022/08/22 03:19:20;;;;;;;2.08;1.10;;;23.00;64.30;;;;;;5026366;28;20473;-62
2022/08/22 03:21:52;;;;;;;3.58;1.27;;;23.00;64.30;;;;;;5029909;28;20119;-62
2022/08/22 03:24:39;;;;;;;2.97;1.02;;;23.00;64.20;;;;;;5030259;28;20040;-62
2022/08/22 03:27:13;;;;;;;2.30;1.00;;;23.00;64.30;;;;;;5029866;28;21648;-62
2022/08/22 03:30:05;;;;;;;2.38;1.30;;;23.00;64.30;;;;;;5024758;28;20018;-62
2022/08/22 03:32:50;;;;;;;2.47;1.05;;;23.00;64.30;;;;;;5029062;28;20025;-62
2022/08/22 03:35:23;;;;;;;2.22;1.20;;;23.00;64.30;;;;;;5035716;28;20041;-62
2022/08/22 03:37:51;;;;;;;1.90;0.98;;;23.00;64.30;;;;;;5028598;28;20033;-62
2022/08/22 03:40:42;;;;;;;2.97;1.20;;;23.00;64.30;;;;;;5037037;28;20041;-62
2022/08/22 03:43:29;;;;;;;3.03;1.17;;;23.00;64.30;;;;;;5023954;28;20079;-62
2022/08/22 03:46:04;;;;;;;2.92;1.13;;;23.00;64.30;;;;;;5026494;28;20308;-62
2022/08/22 03:48:54;;;;;;;2.22;1.00;;;23.00;64.30;;;;;;5028326;28;20071;-61
2022/08/22 03:51:31;;;;;;;3.28;1.00;;;23.00;64.30;;;;;;5027144;28;20054;-62
2022/08/22 03:54:14;;;;;;;2.47;1.20;;;23.00;64.30;;;;;;5027705;28;20112;-62
2022/08/22 03:57:11;;;;;;;1.70;1.00;;;23.00;64.30;;;;;;5025996;28;20513;-62
2022/08/22 03:59:58;;;;;;;1.63;0.90;;;23.00;64.30;;;;;;5028098;28;20524;-62
2022/08/22 04:02:54;;;;;;;2.63;1.20;;;23.00;64.40;;;;;;5027382;28;20398;-62
2022/08/22 04:05:48;;;;;;;2.60;1.00;;;23.00;64.30;;;;;;5028220;28;20032;-62
2022/08/22 04:08:32;;;;;;;2.25;1.00;;;23.00;64.30;;;;;;5026541;28;20180;-62
2022/08/22 04:11:14;;;;;;;2.20;1.05;;;23.00;64.40;;;;;;5027409;28;20625;-62
2022/08/22 04:13:53;;;;;;;2.80;0.90;;;23.00;65.40;;;;;;5026966;28;20033;-62
2022/08/22 04:16:46;;;;;;;2.50;1.13;;;23.00;64.40;;;;;;5023471;28;20026;-62
2022/08/22 04:19:18;;;;;;;2.85;1.10;;;23.00;64.30;;;;;;5027729;28;20434;-62
2022/08/22 04:21:52;;;;;;;3.33;1.10;;;23.00;64.40;;;;;;5027103;28;20466;-62
2022/08/22 04:24:29;;;;;;;2.65;1.00;;;23.00;64.30;;;;;;5026634;28;20468;-62
2022/08/22 04:27:00;;;;;;;1.92;1.00;;;22.90;64.40;;;;;;5028418;28;20029;-62
2022/08/22 04:29:37;;;;;;;1.35;0.98;;;23.00;64.40;;;;;;5027345;28;20028;-62
2022/08/22 04:32:30;;;;;;;1.95;0.95;;;22.90;64.40;;;;;;5031907;28;20034;-62
2022/08/22 04:35:12;;;;;;;2.47;1.00;;;23.00;64.40;;;;;;5025660;28;20036;-62
2022/08/22 04:37:44;;;;;;;1.92;1.00;;;22.90;64.40;;;;;;5036852;28;20025;-62
2022/08/22 04:40:35;;;;;;;3.40;1.13;;;22.90;64.40;;;;;;5025858;28;20528;-62
2022/08/22 04:43:14;;;;;;;2.45;1.10;;;22.90;64.40;;;;;;5013681;28;20089;-62
2022/08/22 04:45:47;;;;;;;2.60;0.90;;;22.90;64.40;;;;;;4985471;28;22304;-62
2022/08/22 04:48:54;;;;;;;1.88;1.00;;;22.90;64.30;;;;;;5005150;28;20053;-62
2022/08/22 04:51:30;;;;;;;2.30;1.05;;;22.90;64.40;;;;;;5005182;28;20057;-62
2022/08/22 04:53:59;;;;;;;1.50;0.90;;;22.90;64.40;;;;;;4987624;28;20041;-62
2022/08/22 04:56:43;;;;;;;1.50;0.90;;;22.90;64.40;;;;;;5004456;28;20033;-62
2022/08/22 04:59:15;;;;;;;1.50;1.00;;;22.90;64.40;;;;;;5003379;28;20113;-62
2022/08/22 05:02:05;;;;;;;3.03;1.10;;;22.90;64.30;;;;;;4985569;28;20044;-62
2022/08/22 05:04:33;;;;;;;1.98;1.05;;;22.90;64.40;;;;;;5005057;28;20034;-62
2022/08/22 05:07:06;;;;;;;3.38;1.00;;;22.90;64.40;;;;;;5009736;28;20434;-63
2022/08/22 05:09:34;;;;;;;2.60;0.80;;;22.90;64.40;;;;;;4988504;28;20038;-62
2022/08/22 05:12:04;;;;;;;2.47;1.10;;;22.90;64.40;;;;;;4988831;28;20038;-62
2022/08/22 05:14:50;;;;;;;1.27;0.95;;;22.90;64.40;;;;;;4992557;28;20061;-62
2022/08/22 05:17:17;;;;;;;2.47;1.05;;;22.90;64.40;;;;;;5005068;28;20038;-62
2022/08/22 05:19:46;;;;;;;1.10;0.90;;;22.90;65.40;;;;;;4999338;28;20029;-62
2022/08/22 05:22:18;;;;;;;1.58;0.90;;;22.90;64.40;;;;;;5032462;28;20037;-62
2022/08/22 05:24:46;;;;;;;1.65;0.90;;;22.90;64.40;;;;;;5025358;28;20057;-62
2022/08/22 05:27:19;;;;;;;2.42;0.95;;;22.90;64.40;;;;;;5025567;28;20405;-62
2022/08/22 05:29:46;;;;;;;1.20;0.80;;;22.90;64.40;;;;;;5024399;28;20037;-62
2022/08/22 05:32:20;;;;;;;2.45;0.90;;;22.90;64.40;;;;;;5025003;28;20037;-62
2022/08/22 05:34:45;;;;;;;1.43;0.80;;;22.90;64.40;;;;;;5025014;28;20025;-62
2022/08/22 05:37:12;;;;;;;1.95;0.80;;;22.90;64.40;;;;;;5026010;28;20295;-62
2022/08/22 05:39:39;;;;;;;2.83;0.90;;;22.90;64.40;;;;;;5025459;28;20025;-62
2022/08/22 05:42:05;;;;;;;2.28;0.90;;;22.90;64.50;;;;;;5024801;28;20078;-62
2022/08/22 05:44:33;;;;;;;1.85;0.85;;;22.80;64.30;;;;;;5023801;28;21916;-62
2022/08/22 05:47:09;;;;;;;1.73;0.90;;;22.80;64.40;;;;;;5022126;28;20033;-62
2022/08/22 05:49:57;;;;;;;2.17;1.00;;;22.80;64.30;;;;;;5008093;28;20029;-62
2022/08/22 05:52:45;;;;;;;1.77;0.95;;;22.80;64.40;;;;;;5024344;28;20073;-62
2022/08/22 05:55:43;;;;;;;2.17;0.82;;;22.80;64.40;;;;;;5024872;28;20033;-62
2022/08/22 05:58:40;;;;;;;2.85;0.90;;;22.90;64.40;;;;;;5003557;28;20541;-62
2022/08/22 06:01:24;;;;;;;1.55;0.88;;;22.80;64.40;;;;;;5002956;28;20129;-62
2022/08/22 06:04:30;;;;;;;2.17;0.85;;;22.80;64.40;;;;;;5000241;28;20026;-62
2022/08/22 06:07:08;;;;;;;1.30;0.85;;;22.80;64.40;;;;;;5003195;28;20034;-62
2022/08/22 06:09:46;;;;;;;1.45;0.88;;;22.90;64.40;;;;;;5017087;28;20459;-62
2022/08/22 06:12:46;;;;;;;2.63;1.08;;;22.80;64.40;;;;;;4989760;28;20046;-62
2022/08/22 06:15:14;;;;;;;1.98;0.90;;;22.80;64.30;;;;;;5009570;28;20034;-62
2022/08/22 06:18:00;;;;;;;1.60;0.82;;;22.80;64.40;;;;;;5004618;28;20041;-62
2022/08/22 06:20:51;;;;;;;3.67;0.98;;;22.80;64.40;;;;;;5018835;28;20061;-62
2022/08/22 06:23:36;;;;;;;1.77;0.90;;;22.80;64.40;;;;;;5014443;28;20061;-62
2022/08/22 06:26:02;;;;;;;1.33;0.75;;;22.80;64.40;;;;;;5016367;28;20041;-62
2022/08/22 06:28:39;;;;;;;1.98;0.90;;;22.80;64.40;;;;;;4975320;28;20034;-62
2022/08/22 06:31:05;;;;;;;1.30;0.77;;;22.80;64.30;;;;;;5007334;28;20029;-62
2022/08/22 06:33:33;;;;;;;1.85;0.80;;;22.80;64.40;;;;;;5016746;28;20046;-62
2022/08/22 06:39:14;;;;;;;1.35;0.80;;;22.80;64.40;;;;;;5026850;28;20036;-62
2022/08/22 06:42:01;;;;;;;1.02;0.70;;;22.80;64.40;;;;;;5026859;28;20145;-62
2022/08/22 06:44:34;;;;;;;1.58;0.90;;;22.80;64.40;;;;;;5025052;28;20112;-62
2022/08/22 06:47:01;;;;;;;2.67;0.90;;;22.80;64.40;;;;;;5025213;28;20502;-62
2022/08/22 06:49:27;;;;;;;1.77;0.85;;;22.80;64.50;;;;;;5028649;28;20370;-62
2022/08/22 06:51:58;;;;;;;2.22;0.98;;;22.80;64.40;;;;;;5026629;28;20047;-61
2022/08/22 06:54:24;;;;;;;1.27;0.82;;;22.80;64.40;;;;;;5029460;28;20037;-62
2022/08/22 06:56:51;;;;;;;2.38;0.93;;;22.80;64.40;;;;;;5012702;28;20025;-61
2022/08/22 06:59:28;;;;;;;3.97;0.70;;;22.80;64.70;;;;;;5027115;28;20053;-61
2022/08/22 07:02:09;;;;;;;1.63;0.85;;;22.80;64.70;;;;;;5024426;28;20075;-61
2022/08/22 07:04:34;;;;;;;1.08;0.60;;;22.80;65.60;;;;;;5028951;28;20029;-62
2022/08/22 07:07:01;;;;;;;1.95;0.80;;;22.80;64.60;;;;;;5028960;28;20030;-61
2022/08/22 07:09:31;;;;;;;2.03;0.93;;;22.80;64.70;;;;;;5024523;28;20132;-61
2022/08/22 07:11:58;;;;;;;2.58;0.80;;;22.80;64.80;;;;;;5010989;28;20595;-61
2022/08/22 07:14:50;;;;;;;3.60;0.80;;;22.80;64.90;;;;;;5024925;28;20041;-62
2022/08/22 07:17:24;;;;;;;2.75;0.90;;;22.80;65.00;;;;;;5024812;28;20492;-62
2022/08/22 07:19:58;;;;;;;2.55;0.98;;;22.80;65.00;;;;;;5026540;28;20026;-62
2022/08/22 07:22:27;;;;;;;0.80;0.55;;;22.80;64.80;;;;;;5028861;28;20018;-62
2022/08/22 07:25:09;;;;;;;1.10;0.70;;;22.80;65.00;;;;;;5030110;28;20045;-62
2022/08/22 07:27:56;;;;;;;1.27;0.70;;;22.80;65.00;;;;;;5026715;28;20064;-61
2022/08/22 07:30:22;;;;;;;3.10;1.10;;;22.80;64.80;;;;;;5021530;28;20029;-61
2022/08/22 07:33:03;;;;;;;2.13;0.80;;;22.80;64.90;;;;;;5027423;28;22365;-61
2022/08/22 07:35:35;;;;;;;3.03;0.90;;;22.80;64.90;;;;;;5028627;28;20018;-61
2022/08/22 07:38:32;;;;;;;3.42;1.10;;;22.90;65.00;;;;;;5028473;28;20072;-61
2022/08/22 07:41:15;;;;;;;3.13;0.93;;;22.90;64.80;;;;;;5026553;28;20030;-61
2022/08/22 07:44:13;;;;;;;2.28;0.80;;;22.80;64.80;;;;;;5025254;28;20113;-61
2022/08/22 07:47:07;;;;;;;2.63;0.80;;;22.90;64.80;;;;;;5043495;28;20041;-61
2022/08/22 07:49:39;;;;;;;2.83;0.80;;;22.90;64.80;;;;;;5026798;28;20088;-61
2022/08/22 07:52:14;;;;;;;1.95;0.65;;;22.90;64.80;;;;;;5011500;28;20049;-61
2022/08/22 07:54:50;;;;;;;2.65;0.90;;;22.80;64.70;;;;;;5031878;28;20029;-61
2022/08/22 07:57:30;;;;;;;1.83;0.95;;;22.90;64.70;;;;;;5026393;28;20033;-61
2022/08/22 07:59:57;;;;;;;2.20;0.80;;;22.90;64.50;;;;;;5027699;28;20061;-61
2022/08/22 08:02:23;;;;;;;1.55;0.80;;;22.90;64.40;;;;;;5036456;28;20033;-62
2022/08/22 08:04:52;;;;;;;2.92;1.00;;;22.90;64.70;;;;;;5025743;28;20021;-61
2022/08/22 08:07:21;;;;;;;2.40;0.93;;;22.90;64.70;;;;;;5024490;28;20557;-61
2022/08/22 08:10:00;;;;;;;4.13;0.90;;;22.90;64.70;;;;;;5009896;28;20040;-61
2022/08/22 08:12:35;;;;;;;3.05;1.10;;;22.90;65.00;;;;;;5012251;28;20102;-61
2022/08/22 08:15:02;;;;;;;;;;;22.90;64.90;;;;;;5025519;28;20017;-61
2022/08/22 08:17:31;;;;;;;5.47;1.00;;;22.90;64.80;;;;;;5028816;28;19909;-61
2022/08/22 08:19:57;;;;;;;5.20;1.00;;;22.90;65.20;;;;;;5009438;28;20037;-60
2022/08/22 08:22:24;;;;;;;4.40;1.05;;;23.00;65.50;;;;;;5022731;28;20036;-61
2022/08/22 08:24:50;;;;;;;3.92;1.05;;;23.00;65.00;;;;;;5024798;28;20025;-61
2022/08/22 08:30:16;;;;;;;5.72;1.17;;;23.00;65.60;;;;;;5023581;28;20485;-61
2022/08/22 08:32:46;;;;;;;3.80;0.85;;;23.00;65.60;;;;;;5024784;28;20038;-61
2022/08/22 08:35:36;;;;;;;2.88;1.08;;;23.00;66.70;;;;;;5025574;28;20418;-61
2022/08/22 08:38:22;;;;;;;3.70;1.25;;;23.10;65.50;;;;;;5052521;28;20038;-61
2022/08/22 08:40:53;;;;;;;3.78;1.20;;;23.10;65.60;;;;;;5024404;28;20025;-61
2022/08/22 08:43:28;;;;;;;3.70;1.30;;;23.10;65.50;;;;;;5024270;28;20079;-61
2022/08/22 08:46:09;;;;;;;6.40;1.20;;;23.20;65.50;;;;;;5026349;28;20053;-61
2022/08/22 08:48:56;;;;;;;3.17;1.05;;;23.20;65.50;;;;;;5022743;28;20041;-61
2022/08/22 08:51:40;;;;;;;3.97;1.05;;;23.20;65.50;;;;;;5025834;28;20041;-61
2022/08/22 08:54:27;;;;;;;3.33;0.90;;;23.20;65.60;;;;;;5021707;28;20591;-61
2022/08/22 08:56:59;;;;;;;3.35;0.88;;;23.20;65.50;;;;;;5026411;28;20052;-61
2022/08/22 08:59:59;;;;;;;5.30;1.30;;;23.20;65.40;;;;;;5025520;28;20064;-61
2022/08/22 09:02:39;;;;;;;4.60;1.17;;;23.20;65.50;;;;;;5026900;28;20049;-61
2022/08/22 09:05:11;;;;;;;4.10;1.10;;;23.20;65.40;;;;;;5026458;28;20027;-61
2022/08/22 09:08:15;;;;;;;8.15;1.27;;;23.30;65.10;;;;;;5025904;28;20048;-61
2022/08/22 09:11:03;;;;;;;4.25;1.20;;;23.20;65.20;;;;;;5022632;28;20033;-61
2022/08/22 09:14:33;;;;;;;4.13;1.15;;;23.20;65.00;;;;;;5025353;28;20052;-61
2022/08/22 09:16:59;;;;;;;7.80;1.38;;;23.30;65.10;;;;;;4978825;28;20054;-61
2022/08/22 09:19:31;;;;;;;5.18;1.08;;;23.30;65.30;;;;;;4981445;28;20422;-61
2022/08/22 09:22:21;;;;;;;6.35;1.40;;;23.30;65.30;;;;;;4975565;28;20119;-61
2022/08/22 09:25:07;;;;;;;7.03;1.25;;;23.30;65.40;;;;;;4981518;28;20112;-61
2022/08/22 09:27:42;;;;;;;6.13;1.30;;;23.30;65.30;;;;;;4977533;28;20050;-61
2022/08/22 09:30:10;;;;;;;5.25;1.20;;;23.30;65.30;;;;;;4977674;28;20105;-61
2022/08/22 09:32:46;;;;;;;5.18;1.30;;;23.30;65.40;;;;;;4956540;28;20050;-61
2022/08/22 09:35:21;;;;;;;5.13;1.23;;;23.30;65.40;;;;;;4965600;28;20045;-61
2022/08/22 09:37:57;;;;;;;4.25;1.00;;;23.30;65.30;;;;;;4968275;28;20033;-61
2022/08/22 09:40:36;;;;;;;3.47;1.15;;;23.30;65.10;;;;;;4952396;28;20104;-61
2022/08/22 09:43:15;;;;;;;2.65;1.10;;;23.30;65.30;;;;;;4966882;28;20110;-61
2022/08/22 09:45:47;;;;;;;3.20;1.17;;;23.30;65.20;;;;;;4963923;28;20084;-61
2022/08/22 09:48:37;;;;;;;4.03;1.33;;;23.30;65.10;;;;;;5009114;28;20039;-61
2022/08/22 09:51:13;;;;;;;6.60;1.20;;;23.40;65.20;;;;;;5011976;28;20244;-61
2022/08/22 09:54:22;;;;;;;2.67;0.80;;;23.40;65.20;;;;;;5017649;28;20075;-61
2022/08/22 09:57:08;;;;;;;6.25;1.00;;;23.40;65.20;;;;;;5025014;28;20033;-61
2022/08/22 09:59:50;;;;;;;5.88;1.30;;;23.40;65.10;;;;;;5017599;28;20040;-61
2022/08/22 10:02:16;;;;;;;4.07;1.20;;;23.40;65.20;;;;;;5023726;28;20029;-61
2022/08/22 10:04:46;;;;;;;5.50;1.17;;;23.40;65.50;;;;;;5025077;28;20035;-61
2022/08/22 10:07:30;;;;;;;5.10;1.00;;;23.40;65.40;;;;;;5025419;28;20036;-61
2022/08/22 10:10:02;;;;;;;3.70;1.10;;;23.40;65.30;;;;;;5025304;28;20048;-61
2022/08/22 10:12:35;;;;;;;5.80;1.02;;;23.40;65.40;;;;;;5022594;28;20052;-61
2022/08/22 10:15:18;;;;;;;4.00;1.20;;;23.40;65.20;;;;;;5012887;28;20021;-61
2022/08/22 10:18:00;;;;;;;4.15;1.35;;;23.50;65.30;;;;;;5017412;28;20695;-61
2022/08/22 10:21:08;;;;;;;4.13;1.27;;;23.50;65.70;;;;;;5019015;28;20529;-61
2022/08/22 10:23:45;;;;;;;4.35;1.20;;;23.50;65.60;;;;;;4981001;28;20038;-61
2022/08/22 10:26:32;;;;;;;7.20;1.65;;;23.50;65.80;;;;;;4981705;28;20039;-62
2022/08/22 10:29:22;;;;;;;6.32;1.40;;;23.50;66.00;;;;;;4983651;28;20039;-61
2022/08/22 10:32:02;;;;;;;3.20;1.20;;;23.50;66.10;;;;;;4984847;28;20061;-64
2022/08/22 10:34:34;;;;;;;3.63;1.33;;;23.50;66.00;;;;;;4948363;28;20058;-63
2022/08/22 10:37:05;;;;;;;6.13;1.30;;;23.50;66.00;;;;;;4992767;28;20054;-63
2022/08/22 10:39:41;;;;;;;4.25;1.40;;;23.50;66.00;;;;;;4980713;28;20624;-63
2022/08/22 10:42:15;;;;;;;16.45;1.65;;;23.50;66.10;;;;;;4965817;28;20034;-65
2022/08/22 10:45:03;;;;;;;4.57;1.30;;;23.60;66.20;;;;;;4974806;28;20117;-61
2022/08/22 10:47:34;;;;;;;5.72;1.50;;;23.60;66.00;;;;;;4991594;28;20069;-61
2022/08/22 10:50:22;;;;;;;8.30;1.50;;;23.60;66.00;;;;;;4964007;28;20030;-59
2022/08/22 10:53:28;;;;;;;7.47;1.52;;;23.60;65.90;;;;;;4950114;28;20051;-58
2022/08/22 10:55:36;;;;;;;8.90;1.85;;;23.70;65.90;;;;;;4967325;28;20034;-58
2022/08/22 10:58:23;;;;;;;7.97;1.77;;;23.70;66.20;;;;;;4953481;28;20197;-58
2022/08/22 11:00:57;;;;;;;12.10;2.00;;;23.80;66.10;;;;;;4973864;28;20577;-57
2022/08/22 11:03:27;;;;;;;10.43;2.20;;;23.90;66.20;;;;;;5002813;28;20045;-57
2022/08/22 11:05:57;;;;;;;10.60;2.42;;;23.90;66.10;;;;;;5003814;28;20038;-58
2022/08/22 11:08:41;;;;;;;10.43;2.55;;;24.00;66.30;;;;;;5006471;28;20478;-57
2022/08/22 11:11:19;;;;;;;13.38;3.70;;;24.00;66.40;;;;;;5006812;28;20034;-57
2022/08/22 11:14:00;;;;;;;11.50;2.90;;;24.00;66.40;;;;;;5016838;28;20529;-57
2022/08/22 11:16:42;;;;;;;8.20;2.78;;;24.10;66.60;;;;;;5004937;28;20022;-57
2022/08/22 11:19:40;;;;;;;11.52;2.75;;;24.20;66.50;;;;;;5008355;28;20583;-56
2022/08/22 11:22:14;;;;;;;10.70;2.55;;;24.20;66.40;;;;;;4998828;28;20041;-56
2022/08/22 11:24:53;;;;;;;;;;;24.30;66.20;;;;;;5007511;28;20113;-57
2022/08/22 11:27:49;;;;;;;11.23;2.20;;;24.20;66.10;;;;;;5006052;28;19918;-58
2022/08/22 11:30:17;;;;;;;10.35;2.40;;;24.30;66.10;;;;;;5005282;28;20122;-58
2022/08/22 11:33:00;;;;;;;15.32;2.97;;;24.30;66.00;;;;;;5003089;28;20112;-57
2022/08/22 11:35:38;;;;;;;20.02;3.70;;;24.30;65.90;;;;;;5004668;28;20521;-58
2022/08/22 11:38:28;;;;;;;17.52;2.97;;;24.30;65.90;;;;;;4997186;28;20034;-58
2022/08/22 11:41:18;;;;;;;21.60;3.60;;;24.30;65.60;;;;;;5004849;28;20033;-58
2022/08/22 11:44:11;;;;;;;15.63;3.45;;;24.30;65.90;;;;;;5009686;28;20054;-58
2022/08/22 11:46:47;;;;;;;17.13;3.50;;;24.30;66.00;;;;;;5009544;28;20446;-57
2022/08/22 11:49:32;;;;;;;14.05;3.38;;;24.30;66.40;;;;;;5016796;28;20056;-58
2022/08/22 11:52:01;;;;;;;18.85;3.75;;;24.20;66.70;;;;;;5015111;28;20713;-58
2022/08/22 11:54:43;;;;;;;16.70;3.42;;;24.20;66.70;;;;;;5028503;28;20035;-58
2022/08/22 11:57:11;;;;;;;11.38;3.03;;;24.10;66.70;;;;;;5010469;28;20028;-58
2022/08/22 12:00:11;;;;;;;16.58;3.30;;;24.20;66.70;;;;;;5027616;28;20033;-58
2022/08/22 12:02:52;;;;;;;14.50;2.97;;;24.10;66.60;;;;;;5027165;28;20128;-58
2022/08/22 12:05:20;;;;;;;17.67;3.67;;;24.20;66.60;;;;;;5025980;28;20038;-57
2022/08/22 12:08:19;;;;;;;14.90;3.20;;;24.10;66.60;;;;;;5027100;28;20018;-58
2022/08/22 12:10:52;;;;;;;12.07;2.95;;;24.10;66.50;;;;;;5027155;28;20029;-58
2022/08/22 12:13:48;;;;;;;14.90;3.08;;;24.10;66.40;;;;;;5026105;28;20076;-58
2022/08/22 12:16:44;;;;;;;12.52;2.83;;;24.20;66.40;;;;;;5028172;28;20386;-58
2022/08/22 12:19:13;;;;;;;14.63;3.13;;;24.20;66.30;;;;;;5025251;28;20025;-58
2022/08/22 12:22:11;;;;;;;13.65;3.05;;;24.20;66.30;;;;;;5028022;28;20421;-58
2022/08/22 12:24:43;;;;;;;14.35;2.63;;;24.20;66.40;;;;;;5025793;28;20460;-58
2022/08/22 12:27:14;;;;;;;10.45;2.33;;;24.20;66.30;;;;;;5026448;28;20032;-58
2022/08/22 12:30:17;;;;;;;12.77;2.67;;;24.20;66.40;;;;;;5027449;28;20672;-57
2022/08/22 12:33:05;;;;;;;11.75;2.35;;;24.20;66.40;;;;;;5025534;28;20041;-57
2022/08/22 12:36:00;;;;;;;9.77;2.50;;;24.20;66.30;;;;;;5025795;28;20027;-57
2022/08/22 12:38:32;;;;;;;11.98;2.75;;;24.20;66.40;;;;;;5025947;28;20528;-58
2022/08/22 12:41:31;;;;;;;11.70;2.90;;;24.20;66.40;;;;;;5025336;28;22680;-58
2022/08/22 12:44:03;;;;;;;12.30;2.85;;;24.10;66.40;;;;;;5027204;28;20061;-58
2022/08/22 12:46:34;;;;;;;12.55;2.92;;;24.10;66.50;;;;;;5027019;28;20037;-58
2022/08/22 12:49:18;;;;;;;10.93;2.60;;;24.20;66.50;;;;;;5026678;28;20028;-57
2022/08/22 12:52:10;;;;;;;14.30;2.45;;;24.10;67.60;;;;;;5025602;28;20050;-58
2022/08/22 12:55:02;;;;;;;10.80;2.33;;;24.10;66.50;;;;;;5022486;28;20056;-58
2022/08/22 12:57:51;;;;;;;12.77;2.35;;;24.10;66.50;;;;;;5022053;28;20033;-58
2022/08/22 13:00:33;;;;;;;14.95;2.67;;;24.10;66.50;;;;;;5024449;28;20048;-58
2022/08/22 13:03:08;;;;;;;8.07;2.00;;;24.10;66.50;;;;;;5027700;28;20512;-58
2022/08/22 13:05:34;;;;;;;10.38;2.40;;;24.20;66.50;;;;;;5025497;28;20030;-57
2022/08/22 13:08:03;;;;;;;10.30;2.67;;;24.10;66.40;;;;;;5027116;28;20026;-58
2022/08/22 13:10:41;;;;;;;10.00;2.40;;;24.10;67.40;;;;;;5026485;28;20033;-57
2022/08/22 13:13:07;;;;;;;10.60;2.28;;;24.10;66.40;;;;;;5032442;28;20030;-58
2022/08/22 13:15:46;;;;;;;8.95;2.60;;;24.10;66.40;;;;;;5010551;28;20589;-57
2022/08/22 13:18:15;;;;;;;9.10;2.55;;;24.10;66.40;;;;;;5010654;28;20033;-58
2022/08/22 13:20:42;;;;;;;10.70;2.25;;;24.20;66.60;;;;;;5024514;28;20029;-58
2022/08/22 13:23:22;;;;;;;9.25;2.10;;;24.10;66.50;;;;;;5008728;28;20057;-58
2022/08/22 13:26:16;;;;;;;8.38;2.00;;;24.10;66.60;;;;;;5026311;28;20025;-58
2022/08/22 13:28:48;;;;;;;9.13;2.45;;;24.20;66.60;;;;;;5023124;28;20041;-57
2022/08/22 13:31:29;;;;;;;9.30;2.20;;;24.10;66.50;;;;;;5022439;28;20641;-58
2022/08/22 13:34:05;;;;;;;7.65;2.03;;;24.10;66.60;;;;;;5007657;28;20029;-57
2022/08/22 13:36:33;;;;;;;11.05;1.85;;;24.10;66.60;;;;;;5021239;28;20108;-57
2022/08/22 13:39:02;;;;;;;8.85;2.00;;;24.10;66.60;;;;;;5024726;28;20037;-58
2022/08/22 13:41:32;;;;;;;7.53;1.92;;;24.10;66.60;;;;;;5027357;28;20057;-58
2022/08/22 13:44:03;;;;;;;9.27;2.10;;;24.10;66.70;;;;;;5026191;28;20025;-58
2022/08/22 13:46:29;;;;;;;9.82;2.35;;;24.10;66.60;;;;;;5025364;28;20116;-58
2022/08/22 13:48:56;;;;;;;10.65;2.53;;;24.10;66.60;;;;;;5026265;28;20905;-58
2022/08/22 13:51:26;;;;;;;9.60;2.65;;;24.10;66.70;;;;;;5025668;28;20676;-58
2022/08/22 13:54:15;;;;;;;6.28;1.80;;;24.10;66.70;;;;;;5026037;28;20401;-57